Aviation Digital Data Service (ADDS)

Output produced by METARs form (0425 UTC 19 January 2017)
found at http://aviationweather.gov/adds/metars/
 
KLGA 190232Z 1903/1924 35007KT P6SM BKN020 
     FM190500 33006KT P6SM SCT025 BKN040 
     FM191300 32007KT P6SM SCT025